sensor_id;sensor_type;location;lat;lon;timestamp;pressure;altitude;pressure_sealevel;temperature;humidity
62789;BME280;66401;42.016;21.454;2023-02-28T00:00:54;98809.19;;;6.74;68.61
62789;BME280;66401;42.016;21.454;2023-02-28T00:03:19;98800.06;;;6.62;69.13
62789;BME280;66401;42.016;21.454;2023-02-28T00:05:45;98809.97;;;6.40;69.82
62789;BME280;66401;42.016;21.454;2023-02-28T00:08:10;98802.78;;;6.34;70.46
62789;BME280;66401;42.016;21.454;2023-02-28T00:10:36;98815.72;;;6.34;70.61
62789;BME280;66401;42.016;21.454;2023-02-28T00:13:05;98807.91;;;6.26;71.37
62789;BME280;66401;42.016;21.454;2023-02-28T00:15:31;98805.03;;;6.29;71.21
62789;BME280;66401;42.016;21.454;2023-02-28T00:17:57;98803.16;;;6.39;70.46
62789;BME280;66401;42.016;21.454;2023-02-28T00:20:24;98804.31;;;6.45;70.54
62789;BME280;66401;42.016;21.454;2023-02-28T00:22:51;98803.28;;;6.64;69.86
62789;BME280;66401;42.016;21.454;2023-02-28T00:25:22;98796.72;;;6.69;68.82
62789;BME280;66401;42.016;21.454;2023-02-28T00:27:49;98801.41;;;6.74;68.82
62789;BME280;66401;42.016;21.454;2023-02-28T00:30:18;98799.22;;;6.87;68.55
62789;BME280;66401;42.016;21.454;2023-02-28T00:32:44;98799.41;;;6.94;68.42
62789;BME280;66401;42.016;21.454;2023-02-28T00:35:10;98784.38;;;6.97;67.80
62789;BME280;66401;42.016;21.454;2023-02-28T00:37:36;98796.31;;;6.90;68.71
62789;BME280;66401;42.016;21.454;2023-02-28T00:40:02;98797.03;;;7.08;67.51
62789;BME280;66401;42.016;21.454;2023-02-28T00:42:30;98796.44;;;7.23;67.18
62789;BME280;66401;42.016;21.454;2023-02-28T00:44:55;98786.34;;;7.11;67.35
62789;BME280;66401;42.016;21.454;2023-02-28T00:47:21;98799.34;;;7.20;66.78
62789;BME280;66401;42.016;21.454;2023-02-28T00:49:46;98801.59;;;7.14;66.78
62789;BME280;66401;42.016;21.454;2023-02-28T00:52:12;98794.63;;;7.07;67.55
62789;BME280;66401;42.016;21.454;2023-02-28T00:54:38;98789.56;;;6.97;66.94
62789;BME280;66401;42.016;21.454;2023-02-28T00:57:03;98794.44;;;7.08;66.60
62789;BME280;66401;42.016;21.454;2023-02-28T00:59:29;98796.41;;;7.06;67.49
62789;BME280;66401;42.016;21.454;2023-02-28T01:01:54;98790.84;;;7.01;67.12
62789;BME280;66401;42.016;21.454;2023-02-28T01:04:20;98801.91;;;7.11;67.81
62789;BME280;66401;42.016;21.454;2023-02-28T01:06:45;98802.34;;;6.99;68.10
62789;BME280;66401;42.016;21.454;2023-02-28T01:09:11;98785.34;;;7.04;67.02
62789;BME280;66401;42.016;21.454;2023-02-28T01:11:37;98789.97;;;7.18;67.12
62789;BME280;66401;42.016;21.454;2023-02-28T01:14:04;98791.59;;;7.28;66.21
62789;BME280;66401;42.016;21.454;2023-02-28T01:16:30;98786.41;;;7.28;66.49
62789;BME280;66401;42.016;21.454;2023-02-28T01:18:56;98789.66;;;7.30;66.33
62789;BME280;66401;42.016;21.454;2023-02-28T01:21:22;98783.94;;;7.10;66.62
62789;BME280;66401;42.016;21.454;2023-02-28T01:23:49;98790.59;;;7.21;66.45
62789;BME280;66401;42.016;21.454;2023-02-28T01:26:18;98779.22;;;7.13;66.50
62789;BME280;66401;42.016;21.454;2023-02-28T01:28:44;98773.06;;;6.98;66.58
62789;BME280;66401;42.016;21.454;2023-02-28T01:31:09;98784.75;;;7.10;66.44
62789;BME280;66401;42.016;21.454;2023-02-28T01:33:35;98789.66;;;7.30;65.40
62789;BME280;66401;42.016;21.454;2023-02-28T01:36:03;98777.66;;;7.21;65.59
62789;BME280;66401;42.016;21.454;2023-02-28T01:38:29;98789.97;;;7.27;65.96
62789;BME280;66401;42.016;21.454;2023-02-28T01:40:55;98790.94;;;7.17;66.35
62789;BME280;66401;42.016;21.454;2023-02-28T01:43:53;98795.13;;;7.18;66.41
62789;BME280;66401;42.016;21.454;2023-02-28T01:46:16;98797.56;;;7.20;66.79
62789;BME280;66401;42.016;21.454;2023-02-28T01:51:28;98795.28;;;7.17;66.03
62789;BME280;66401;42.016;21.454;2023-02-28T01:54:00;98796.09;;;7.17;66.30
62789;BME280;66401;42.016;21.454;2023-02-28T01:56:29;98795.41;;;7.07;66.91
62789;BME280;66401;42.016;21.454;2023-02-28T01:58:56;98800.44;;;6.75;67.32
62789;BME280;66401;42.016;21.454;2023-02-28T02:01:23;98795.41;;;6.73;68.28
62789;BME280;66401;42.016;21.454;2023-02-28T02:03:58;98801.88;;;6.69;68.14
62789;BME280;66401;42.016;21.454;2023-02-28T02:06:29;98805.22;;;6.62;68.68
62789;BME280;66401;42.016;21.454;2023-02-28T02:08:55;98800.72;;;6.64;67.98
62789;BME280;66401;42.016;21.454;2023-02-28T02:11:22;98805.19;;;6.53;69.07
62789;BME280;66401;42.016;21.454;2023-02-28T02:34:23;98830.59;;;6.32;69.81
62789;BME280;66401;42.016;21.454;2023-02-28T02:39:58;98834.47;;;6.10;70.97
62789;BME280;66401;42.016;21.454;2023-02-28T02:42:35;98831.00;;;6.19;71.48
62789;BME280;66401;42.016;21.454;2023-02-28T02:45:26;98835.44;;;6.09;72.19
62789;BME280;66401;42.016;21.454;2023-02-28T02:47:56;98837.75;;;5.85;73.23
62789;BME280;66401;42.016;21.454;2023-02-28T02:50:27;98834.63;;;6.09;72.06
62789;BME280;66401;42.016;21.454;2023-02-28T02:52:57;98838.91;;;6.18;71.67
62789;BME280;66401;42.016;21.454;2023-02-28T02:55:25;98841.53;;;6.26;70.85
62789;BME280;66401;42.016;21.454;2023-02-28T02:57:58;98853.81;;;6.24;71.82
62789;BME280;66401;42.016;21.454;2023-02-28T03:00:31;98846.44;;;6.29;71.86
62789;BME280;66401;42.016;21.454;2023-02-28T03:02:58;98846.13;;;6.32;70.63
62789;BME280;66401;42.016;21.454;2023-02-28T03:05:28;98848.19;;;6.28;71.23
62789;BME280;66401;42.016;21.454;2023-02-28T03:07:54;98849.34;;;6.34;71.77
62789;BME280;66401;42.016;21.454;2023-02-28T03:10:50;98848.78;;;6.40;70.40
62789;BME280;66401;42.016;21.454;2023-02-28T03:19:24;98852.06;;;6.50;70.00
62789;BME280;66401;42.016;21.454;2023-02-28T03:27:20;98855.69;;;6.57;70.15
62789;BME280;66401;42.016;21.454;2023-02-28T03:29:57;98849.53;;;6.58;70.60
62789;BME280;66401;42.016;21.454;2023-02-28T03:32:36;98840.41;;;6.72;69.55
62789;BME280;66401;42.016;21.454;2023-02-28T03:35:43;98840.25;;;6.74;70.31
62789;BME280;66401;42.016;21.454;2023-02-28T03:38:22;98838.94;;;6.70;70.35
62789;BME280;66401;42.016;21.454;2023-02-28T03:41:00;98847.09;;;6.83;69.22
62789;BME280;66401;42.016;21.454;2023-02-28T03:43:30;98852.75;;;6.78;69.79
62789;BME280;66401;42.016;21.454;2023-02-28T03:45:59;98846.53;;;6.71;70.54
62789;BME280;66401;42.016;21.454;2023-02-28T03:48:43;98843.16;;;6.71;70.87
62789;BME280;66401;42.016;21.454;2023-02-28T03:51:15;98841.41;;;6.79;70.52
62789;BME280;66401;42.016;21.454;2023-02-28T03:53:45;98844.81;;;6.80;70.63
62789;BME280;66401;42.016;21.454;2023-02-28T03:56:37;98850.44;;;6.75;71.13
62789;BME280;66401;42.016;21.454;2023-02-28T04:01:41;98847.56;;;6.78;70.10
62789;BME280;66401;42.016;21.454;2023-02-28T04:04:08;98853.88;;;6.76;71.34
62789;BME280;66401;42.016;21.454;2023-02-28T04:06:34;98839.91;;;6.69;70.65
62789;BME280;66401;42.016;21.454;2023-02-28T04:09:01;98871.03;;;6.77;70.29
62789;BME280;66401;42.016;21.454;2023-02-28T04:11:40;98874.22;;;6.71;71.00
62789;BME280;66401;42.016;21.454;2023-02-28T04:14:07;98874.16;;;6.63;71.67
62789;BME280;66401;42.016;21.454;2023-02-28T04:16:35;98868.03;;;6.46;71.72
62789;BME280;66401;42.016;21.454;2023-02-28T04:19:06;98870.41;;;6.57;71.02
62789;BME280;66401;42.016;21.454;2023-02-28T04:21:38;98869.59;;;6.56;71.77
62789;BME280;66401;42.016;21.454;2023-02-28T04:24:12;98878.41;;;6.72;70.94
62789;BME280;66401;42.016;21.454;2023-02-28T04:26:44;98876.84;;;6.79;70.62
62789;BME280;66401;42.016;21.454;2023-02-28T04:29:12;98873.03;;;6.91;70.17
62789;BME280;66401;42.016;21.454;2023-02-28T04:31:38;98875.28;;;6.86;70.16
62789;BME280;66401;42.016;21.454;2023-02-28T04:34:04;98871.91;;;6.94;70.00
62789;BME280;66401;42.016;21.454;2023-02-28T04:36:30;98879.22;;;6.98;70.16
62789;BME280;66401;42.016;21.454;2023-02-28T04:38:56;98867.16;;;6.81;70.39
62789;BME280;66401;42.016;21.454;2023-02-28T04:41:21;98864.22;;;6.76;70.19
62789;BME280;66401;42.016;21.454;2023-02-28T04:43:48;98878.66;;;6.60;70.74
62789;BME280;66401;42.016;21.454;2023-02-28T04:46:13;98885.78;;;6.58;70.66
62789;BME280;66401;42.016;21.454;2023-02-28T04:48:39;98876.97;;;6.51;71.61
62789;BME280;66401;42.016;21.454;2023-02-28T04:51:08;98879.69;;;6.68;70.39
62789;BME280;66401;42.016;21.454;2023-02-28T04:53:35;98882.03;;;6.79;70.82
62789;BME280;66401;42.016;21.454;2023-02-28T04:56:01;98869.41;;;6.76;70.74
62789;BME280;66401;42.016;21.454;2023-02-28T04:58:27;98871.72;;;6.61;70.83
62789;BME280;66401;42.016;21.454;2023-02-28T05:00:54;98876.03;;;6.52;71.10
62789;BME280;66401;42.016;21.454;2023-02-28T05:03:26;98876.44;;;6.66;71.48
62789;BME280;66401;42.016;21.454;2023-02-28T05:05:51;98878.50;;;6.62;70.86
62789;BME280;66401;42.016;21.454;2023-02-28T05:08:17;98882.75;;;6.45;72.44
62789;BME280;66401;42.016;21.454;2023-02-28T05:10:42;98882.75;;;6.45;72.29
62789;BME280;66401;42.016;21.454;2023-02-28T05:13:11;98879.09;;;6.30;72.25
62789;BME280;66401;42.016;21.454;2023-02-28T05:15:37;98879.91;;;6.30;72.99
62789;BME280;66401;42.016;21.454;2023-02-28T05:18:03;98882.91;;;6.26;72.95
62789;BME280;66401;42.016;21.454;2023-02-28T05:20:29;98896.91;;;6.33;72.41
62789;BME280;66401;42.016;21.454;2023-02-28T05:22:56;98886.75;;;6.57;71.42
62789;BME280;66401;42.016;21.454;2023-02-28T05:25:22;98890.00;;;6.59;71.63
62789;BME280;66401;42.016;21.454;2023-02-28T05:27:48;98900.03;;;6.63;71.08
62789;BME280;66401;42.016;21.454;2023-02-28T05:30:14;98900.69;;;6.65;70.61
62789;BME280;66401;42.016;21.454;2023-02-28T05:32:41;98898.69;;;6.76;70.83
62789;BME280;66401;42.016;21.454;2023-02-28T05:35:09;98895.47;;;6.82;70.57
62789;BME280;66401;42.016;21.454;2023-02-28T05:37:36;98906.53;;;6.93;70.61
62789;BME280;66401;42.016;21.454;2023-02-28T05:40:02;98917.44;;;6.96;69.53
62789;BME280;66401;42.016;21.454;2023-02-28T05:42:31;98915.16;;;7.01;70.06
62789;BME280;66401;42.016;21.454;2023-02-28T05:44:57;98917.13;;;6.99;70.69
62789;BME280;66401;42.016;21.454;2023-02-28T05:47:22;98914.84;;;6.96;69.85
62789;BME280;66401;42.016;21.454;2023-02-28T05:49:48;98915.34;;;7.00;70.41
62789;BME280;66401;42.016;21.454;2023-02-28T05:52:13;98927.16;;;7.02;70.56
62789;BME280;66401;42.016;21.454;2023-02-28T05:54:39;98923.81;;;7.10;69.54
62789;BME280;66401;42.016;21.454;2023-02-28T05:57:04;98925.63;;;7.17;69.81
62789;BME280;66401;42.016;21.454;2023-02-28T05:59:30;98930.50;;;7.21;69.05
62789;BME280;66401;42.016;21.454;2023-02-28T06:01:55;98935.38;;;7.24;69.45
62789;BME280;66401;42.016;21.454;2023-02-28T06:04:21;98925.94;;;7.14;69.17
62789;BME280;66401;42.016;21.454;2023-02-28T06:06:49;98928.16;;;6.83;70.85
62789;BME280;66401;42.016;21.454;2023-02-28T06:09:15;98925.00;;;6.72;70.74
62789;BME280;66401;42.016;21.454;2023-02-28T06:11:41;98932.72;;;6.64;70.45
62789;BME280;66401;42.016;21.454;2023-02-28T06:14:07;98938.94;;;6.71;70.69
62789;BME280;66401;42.016;21.454;2023-02-28T06:16:37;98938.53;;;6.66;71.23
62789;BME280;66401;42.016;21.454;2023-02-28T06:19:04;98956.75;;;6.74;70.68
62789;BME280;66401;42.016;21.454;2023-02-28T06:21:30;98948.38;;;6.80;70.10
62789;BME280;66401;42.016;21.454;2023-02-28T06:23:57;98955.41;;;6.87;70.66
62789;BME280;66401;42.016;21.454;2023-02-28T06:26:23;98950.41;;;6.94;70.04
62789;BME280;66401;42.016;21.454;2023-02-28T06:28:49;98959.75;;;6.87;70.49
62789;BME280;66401;42.016;21.454;2023-02-28T06:31:16;98956.06;;;6.89;69.59
62789;BME280;66401;42.016;21.454;2023-02-28T06:33:44;98960.97;;;7.01;68.71
62789;BME280;66401;42.016;21.454;2023-02-28T06:36:11;98950.63;;;7.01;69.59
62789;BME280;66401;42.016;21.454;2023-02-28T06:38:38;98956.28;;;7.04;69.33
62789;BME280;66401;42.016;21.454;2023-02-28T06:41:04;98949.81;;;7.00;69.64
62789;BME280;66401;42.016;21.454;2023-02-28T06:43:33;98959.25;;;7.09;69.00
62789;BME280;66401;42.016;21.454;2023-02-28T06:46:00;98950.22;;;7.13;68.34
62789;BME280;66401;42.016;21.454;2023-02-28T06:48:26;98964.88;;;7.31;67.77
62789;BME280;66401;42.016;21.454;2023-02-28T06:51:00;98966.66;;;7.30;68.53
62789;BME280;66401;42.016;21.454;2023-02-28T06:53:26;98973.53;;;7.13;68.47
62789;BME280;66401;42.016;21.454;2023-02-28T06:55:51;98976.31;;;7.20;69.41
62789;BME280;66401;42.016;21.454;2023-02-28T06:58:17;98976.63;;;7.17;69.00
62789;BME280;66401;42.016;21.454;2023-02-28T07:00:45;98976.13;;;7.13;69.22
62789;BME280;66401;42.016;21.454;2023-02-28T07:03:12;98968.41;;;7.22;69.12
62789;BME280;66401;42.016;21.454;2023-02-28T07:05:38;98977.94;;;7.21;68.86
62789;BME280;66401;42.016;21.454;2023-02-28T07:08:05;98986.84;;;7.44;68.57
62789;BME280;66401;42.016;21.454;2023-02-28T07:10:32;98978.91;;;7.46;68.09
62789;BME280;66401;42.016;21.454;2023-02-28T07:12:59;98984.25;;;7.44;69.47
62789;BME280;66401;42.016;21.454;2023-02-28T07:15:24;98979.66;;;7.38;68.82
62789;BME280;66401;42.016;21.454;2023-02-28T07:17:50;98987.59;;;7.37;68.93
62789;BME280;66401;42.016;21.454;2023-02-28T07:20:16;98968.81;;;7.35;68.65
62789;BME280;66401;42.016;21.454;2023-02-28T07:22:41;98973.69;;;7.38;68.69
62789;BME280;66401;42.016;21.454;2023-02-28T07:25:07;98971.94;;;7.46;68.61
62789;BME280;66401;42.016;21.454;2023-02-28T07:27:33;98974.44;;;7.56;68.08
62789;BME280;66401;42.016;21.454;2023-02-28T07:29:59;98966.84;;;7.63;67.61
62789;BME280;66401;42.016;21.454;2023-02-28T07:32:27;98975.63;;;7.78;67.31
62789;BME280;66401;42.016;21.454;2023-02-28T07:34:53;98968.06;;;7.85;67.63
62789;BME280;66401;42.016;21.454;2023-02-28T07:37:19;98976.84;;;8.00;66.84
62789;BME280;66401;42.016;21.454;2023-02-28T07:39:45;98971.34;;;8.03;66.44
62789;BME280;66401;42.016;21.454;2023-02-28T07:42:10;98966.50;;;8.08;66.24
62789;BME280;66401;42.016;21.454;2023-02-28T07:44:38;98954.16;;;8.10;66.30
62789;BME280;66401;42.016;21.454;2023-02-28T07:47:07;98964.03;;;7.98;66.75
62789;BME280;66401;42.016;21.454;2023-02-28T07:49:34;98963.97;;;7.74;66.98
62789;BME280;66401;42.016;21.454;2023-02-28T07:52:00;98957.69;;;7.85;67.00
62789;BME280;66401;42.016;21.454;2023-02-28T07:54:26;98946.50;;;7.84;67.34
62789;BME280;66401;42.016;21.454;2023-02-28T07:56:51;98940.41;;;8.01;66.46
62789;BME280;66401;42.016;21.454;2023-02-28T07:59:16;98959.38;;;8.18;66.88
62789;BME280;66401;42.016;21.454;2023-02-28T08:01:42;98957.13;;;8.23;66.45
62789;BME280;66401;42.016;21.454;2023-02-28T08:04:09;98955.16;;;8.17;66.88
62789;BME280;66401;42.016;21.454;2023-02-28T08:06:35;98945.94;;;8.15;67.20
62789;BME280;66401;42.016;21.454;2023-02-28T08:09:00;98948.69;;;8.13;67.24
62789;BME280;66401;42.016;21.454;2023-02-28T08:11:26;98945.94;;;8.15;67.33
62789;BME280;66401;42.016;21.454;2023-02-28T08:13:52;98942.22;;;8.25;67.23
62789;BME280;66401;42.016;21.454;2023-02-28T08:16:17;98950.34;;;8.30;67.30
62789;BME280;66401;42.016;21.454;2023-02-28T08:18:51;98944.81;;;8.25;66.85
62789;BME280;66401;42.016;21.454;2023-02-28T08:21:17;98928.06;;;8.20;66.91
62789;BME280;66401;42.016;21.454;2023-02-28T08:23:43;98951.66;;;8.35;66.76
62789;BME280;66401;42.016;21.454;2023-02-28T08:26:09;98957.34;;;8.38;66.67
62789;BME280;66401;42.016;21.454;2023-02-28T08:28:34;98957.16;;;8.31;66.36
62789;BME280;66401;42.016;21.454;2023-02-28T08:31:00;98952.13;;;8.38;67.01
62789;BME280;66401;42.016;21.454;2023-02-28T08:33:26;98932.38;;;8.45;67.36
62789;BME280;66401;42.016;21.454;2023-02-28T08:35:54;98945.81;;;8.49;66.27
62789;BME280;66401;42.016;21.454;2023-02-28T08:38:20;98940.97;;;8.54;66.24
62789;BME280;66401;42.016;21.454;2023-02-28T08:40:45;98926.38;;;8.69;65.92
62789;BME280;66401;42.016;21.454;2023-02-28T08:43:11;98936.41;;;8.88;65.79
62789;BME280;66401;42.016;21.454;2023-02-28T08:45:36;98931.06;;;8.90;65.17
62789;BME280;66401;42.016;21.454;2023-02-28T08:48:02;98918.88;;;8.99;65.50
62789;BME280;66401;42.016;21.454;2023-02-28T08:50:27;98924.34;;;9.12;64.67
62789;BME280;66401;42.016;21.454;2023-02-28T08:52:53;98894.81;;;8.97;64.64
62789;BME280;66401;42.016;21.454;2023-02-28T08:55:18;98924.88;;;8.99;64.67
62789;BME280;66401;42.016;21.454;2023-02-28T08:57:44;98911.09;;;8.91;64.99
62789;BME280;66401;42.016;21.454;2023-02-28T09:00:10;98919.00;;;9.05;64.96
62789;BME280;66401;42.016;21.454;2023-02-28T09:02:39;98923.69;;;9.18;65.03
62789;BME280;66401;42.016;21.454;2023-02-28T09:05:05;98912.97;;;9.21;63.63
62789;BME280;66401;42.016;21.454;2023-02-28T09:07:30;98918.78;;;9.31;63.96
62789;BME280;66401;42.016;21.454;2023-02-28T09:09:56;98922.00;;;9.33;64.17
62789;BME280;66401;42.016;21.454;2023-02-28T09:12:32;98915.91;;;9.10;65.62
62789;BME280;66401;42.016;21.454;2023-02-28T09:14:58;98927.91;;;9.19;64.47
62789;BME280;66401;42.016;21.454;2023-02-28T09:17:24;98917.56;;;8.95;66.04
62789;BME280;66401;42.016;21.454;2023-02-28T09:19:49;98926.97;;;8.87;65.95
62789;BME280;66401;42.016;21.454;2023-02-28T09:22:15;98920.03;;;8.64;66.31
62789;BME280;66401;42.016;21.454;2023-02-28T09:24:41;98928.00;;;8.62;66.86
62789;BME280;66401;42.016;21.454;2023-02-28T09:27:06;98920.03;;;8.72;65.85
62789;BME280;66401;42.016;21.454;2023-02-28T09:29:33;98914.97;;;8.86;66.31
62789;BME280;66401;42.016;21.454;2023-02-28T09:31:59;98919.84;;;8.98;65.85
62789;BME280;66401;42.016;21.454;2023-02-28T09:34:26;98923.09;;;8.92;65.93
62789;BME280;66401;42.016;21.454;2023-02-28T09:36:52;98911.38;;;9.04;66.32
62789;BME280;66401;42.016;21.454;2023-02-28T09:39:23;98912.00;;;9.14;65.57
62789;BME280;66401;42.016;21.454;2023-02-28T09:41:53;98912.63;;;9.24;64.70
62789;BME280;66401;42.016;21.454;2023-02-28T09:46:57;98900.94;;;9.20;64.92
62789;BME280;66401;42.016;21.454;2023-02-28T09:49:43;98910.00;;;9.32;65.49
62789;BME280;66401;42.016;21.454;2023-02-28T09:52:38;98896.00;;;9.33;64.00
62789;BME280;66401;42.016;21.454;2023-02-28T09:57:51;98892.94;;;9.38;64.50
62789;BME280;66401;42.016;21.454;2023-02-28T10:00:24;98901.22;;;9.33;65.61
62789;BME280;66401;42.016;21.454;2023-02-28T10:05:43;98894.81;;;9.44;64.89
62789;BME280;66401;42.016;21.454;2023-02-28T10:08:14;98897.56;;;9.51;64.68
62789;BME280;66401;42.016;21.454;2023-02-28T10:10:44;98885.34;;;9.59;64.36
62789;BME280;66401;42.016;21.454;2023-02-28T10:13:43;98878.94;;;9.39;65.45
62789;BME280;66401;42.016;21.454;2023-02-28T10:16:11;98870.00;;;9.33;65.30
62789;BME280;66401;42.016;21.454;2023-02-28T10:18:48;98878.84;;;9.55;64.73
62789;BME280;66401;42.016;21.454;2023-02-28T10:21:30;98874.78;;;9.61;64.75
62789;BME280;66401;42.016;21.454;2023-02-28T10:24:03;98868.25;;;9.65;64.23
62789;BME280;66401;42.016;21.454;2023-02-28T10:26:31;98875.19;;;9.72;64.63
62789;BME280;66401;42.016;21.454;2023-02-28T10:28:57;98872.38;;;9.82;64.46
62789;BME280;66401;42.016;21.454;2023-02-28T10:31:23;98855.09;;;9.89;63.89
62789;BME280;66401;42.016;21.454;2023-02-28T10:33:48;98855.41;;;9.94;63.80
62789;BME280;66401;42.016;21.454;2023-02-28T10:36:17;98859.38;;;9.82;64.33
62789;BME280;66401;42.016;21.454;2023-02-28T10:38:45;98856.34;;;9.93;64.40
62789;BME280;66401;42.016;21.454;2023-02-28T10:41:16;98858.97;;;9.93;64.70
62789;BME280;66401;42.016;21.454;2023-02-28T10:43:43;98854.75;;;9.92;64.40
62789;BME280;66401;42.016;21.454;2023-02-28T10:46:11;98855.31;;;10.02;64.09
62789;BME280;66401;42.016;21.454;2023-02-28T10:48:57;98849.84;;;9.97;63.95
62789;BME280;66401;42.016;21.454;2023-02-28T10:51:34;98855.09;;;10.12;63.70
62789;BME280;66401;42.016;21.454;2023-02-28T10:54:00;98841.81;;;10.30;63.00
62789;BME280;66401;42.016;21.454;2023-02-28T10:56:26;98840.06;;;10.45;62.80
62789;BME280;66401;42.016;21.454;2023-02-28T10:59:02;98830.88;;;10.49;63.46
62789;BME280;66401;42.016;21.454;2023-02-28T11:04:03;98820.25;;;10.74;62.70
62789;BME280;66401;42.016;21.454;2023-02-28T11:06:41;98817.44;;;11.20;61.65
62789;BME280;66401;42.016;21.454;2023-02-28T11:09:20;98815.41;;;11.87;58.69
62789;BME280;66401;42.016;21.454;2023-02-28T11:11:48;98813.56;;;12.30;57.37
62789;BME280;66401;42.016;21.454;2023-02-28T11:14:24;98804.50;;;12.89;56.74
62789;BME280;66401;42.016;21.454;2023-02-28T11:16:51;98799.97;;;13.11;54.81
62789;BME280;66401;42.016;21.454;2023-02-28T11:19:23;98796.78;;;12.74;55.82
62789;BME280;66401;42.016;21.454;2023-02-28T11:22:01;98798.66;;;12.52;55.66
62789;BME280;66401;42.016;21.454;2023-02-28T11:24:30;98793.53;;;12.66;55.47
62789;BME280;66401;42.016;21.454;2023-02-28T11:26:58;98794.22;;;12.53;56.79
62789;BME280;66401;42.016;21.454;2023-02-28T11:32:21;98775.28;;;12.79;55.69
62789;BME280;66401;42.016;21.454;2023-02-28T11:35:04;98790.13;;;12.72;55.81
62789;BME280;66401;42.016;21.454;2023-02-28T11:37:39;98792.84;;;12.57;56.58
62789;BME280;66401;42.016;21.454;2023-02-28T11:40:15;98781.00;;;12.05;58.79
62789;BME280;66401;42.016;21.454;2023-02-28T11:51:18;98772.25;;;12.13;58.06
62789;BME280;66401;42.016;21.454;2023-02-28T11:56:30;98762.88;;;12.25;57.73
62789;BME280;66401;42.016;21.454;2023-02-28T12:01:54;98743.13;;;12.44;57.98
62789;BME280;66401;42.016;21.454;2023-02-28T12:07:06;98744.41;;;12.96;56.90
62789;BME280;66401;42.016;21.454;2023-02-28T12:17:43;98719.66;;;13.86;53.36
62789;BME280;66401;42.016;21.454;2023-02-28T12:20:36;98713.06;;;15.26;51.10
62789;BME280;66401;42.016;21.454;2023-02-28T12:28:28;98705.41;;;18.11;43.75
62789;BME280;66401;42.016;21.454;2023-02-28T12:31:19;98692.16;;;19.09;41.12
62789;BME280;66401;42.016;21.454;2023-02-28T12:33:58;98693.56;;;19.00;41.41
62789;BME280;66401;42.016;21.454;2023-02-28T12:36:25;98676.84;;;18.66;42.17
62789;BME280;66401;42.016;21.454;2023-02-28T12:38:58;98674.53;;;18.70;42.67
62789;BME280;66401;42.016;21.454;2023-02-28T12:44:32;98662.94;;;17.95;44.01
62789;BME280;66401;42.016;21.454;2023-02-28T12:47:02;98660.25;;;17.19;45.96
62789;BME280;66401;42.016;21.454;2023-02-28T12:49:37;98651.69;;;18.75;42.64
62789;BME280;66401;42.016;21.454;2023-02-28T12:52:04;98649.72;;;18.19;42.70
62789;BME280;66401;42.016;21.454;2023-02-28T12:54:51;98652.69;;;18.86;41.79
62789;BME280;66401;42.016;21.454;2023-02-28T13:00:03;98631.19;;;18.94;41.78
62789;BME280;66401;42.016;21.454;2023-02-28T13:10:44;98621.53;;;17.07;46.60
62789;BME280;66401;42.016;21.454;2023-02-28T13:13:16;98629.47;;;17.19;45.18
62789;BME280;66401;42.016;21.454;2023-02-28T13:16:06;98611.66;;;16.24;47.69
62789;BME280;66401;42.016;21.454;2023-02-28T13:18:38;98620.69;;;16.47;47.54
62789;BME280;66401;42.016;21.454;2023-02-28T13:21:07;98625.34;;;16.81;46.64
62789;BME280;66401;42.016;21.454;2023-02-28T13:26:01;98608.19;;;16.60;46.12
62789;BME280;66401;42.016;21.454;2023-02-28T13:31:19;98600.72;;;16.76;47.04
62789;BME280;66401;42.016;21.454;2023-02-28T13:54:43;98581.94;;;15.12;51.78
62789;BME280;66401;42.016;21.454;2023-02-28T13:57:44;98581.28;;;14.92;51.84
62789;BME280;66401;42.016;21.454;2023-02-28T14:06:20;98581.56;;;14.32;53.99
62789;BME280;66401;42.016;21.454;2023-02-28T14:11:43;98582.50;;;13.93;55.06
62789;BME280;66401;42.016;21.454;2023-02-28T14:17:05;98579.06;;;13.99;55.71
62789;BME280;66401;42.016;21.454;2023-02-28T14:19:35;98578.88;;;13.88;55.60
62789;BME280;66401;42.016;21.454;2023-02-28T14:22:43;98574.88;;;13.65;55.54
62789;BME280;66401;42.016;21.454;2023-02-28T14:31:10;98579.34;;;13.25;56.82
62789;BME280;66401;42.016;21.454;2023-02-28T14:36:30;98578.50;;;13.18;58.59
62789;BME280;66401;42.016;21.454;2023-02-28T14:39:19;98586.53;;;13.03;59.37
62789;BME280;66401;42.016;21.454;2023-02-28T14:41:46;98586.53;;;13.10;58.00
62789;BME280;66401;42.016;21.454;2023-02-28T14:44:26;98582.09;;;12.97;58.74
62789;BME280;66401;42.016;21.454;2023-02-28T14:46:54;98584.50;;;12.99;58.34
62789;BME280;66401;42.016;21.454;2023-02-28T14:49:21;98582.09;;;12.97;58.23
62789;BME280;66401;42.016;21.454;2023-02-28T14:54:46;98564.97;;;12.81;57.68
62789;BME280;66401;42.016;21.454;2023-02-28T14:57:23;98572.44;;;12.98;58.10
62789;BME280;66401;42.016;21.454;2023-02-28T15:00:11;98581.09;;;13.05;58.35
62789;BME280;66401;42.016;21.454;2023-02-28T15:02:39;98578.28;;;13.00;58.94
62789;BME280;66401;42.016;21.454;2023-02-28T15:07:47;98582.09;;;12.90;59.12
62789;BME280;66401;42.016;21.454;2023-02-28T15:12:56;98596.13;;;12.76;59.02
62789;BME280;66401;42.016;21.454;2023-02-28T15:15:26;98593.91;;;12.73;59.04
62789;BME280;66401;42.016;21.454;2023-02-28T15:17:56;98592.09;;;12.67;59.58
62789;BME280;66401;42.016;21.454;2023-02-28T15:20:23;98597.72;;;12.71;59.29
62789;BME280;66401;42.016;21.454;2023-02-28T15:22:50;98598.09;;;12.61;60.54
62789;BME280;66401;42.016;21.454;2023-02-28T15:25:20;98591.44;;;12.52;59.09
62789;BME280;66401;42.016;21.454;2023-02-28T15:27:51;98607.72;;;12.54;60.56
62789;BME280;66401;42.016;21.454;2023-02-28T15:30:29;98599.66;;;12.49;60.29
62789;BME280;66401;42.016;21.454;2023-02-28T15:35:36;98605.50;;;12.51;61.03
62789;BME280;66401;42.016;21.454;2023-02-28T15:40:41;98586.41;;;12.50;60.31
62789;BME280;66401;42.016;21.454;2023-02-28T15:43:17;98599.88;;;12.54;60.72
62789;BME280;66401;42.016;21.454;2023-02-28T15:45:50;98595.44;;;12.54;60.50
62789;BME280;66401;42.016;21.454;2023-02-28T15:48:28;98589.84;;;12.57;60.71